Latest Weather Observations for Wyndham Airport

IDD60801

Issued at 9:01 am CST Wednesday 24 July 2024 (issued every 10 minutes, with the page automatically refreshed every 10 minutes)

About weather observations | Map of weather stations | Latest weather observations for NT | Other Formats
Station Details ID: 001006 Name: WYNDHAM AERO Lat: -15.51 Lon: 128.15 Height: 3.8 m
Data from the previous 72 hours. | See also: Recent months at Wyndham Airport
Date/Time
CST
Temp
°C
App
Temp
°C
Dew
Point
°C
Rel
Hum
%
Delta-T
°C
Wind Press
QNH
hPa
Press
MSL
hPa
Rain since
9am
mm
Dir  Spd
km/h
Gust
km/h
Spd
kts
Gust
kts
24/08:30am 17.2 16.8 8.4 56 4.5 CALM 0 0 0 0 1014.9 1014.9 0.0
24/08:00am 13.1 12.6 7.8 70 2.6 CALM 0 0 0 0 1014.8 1014.8 0.0
24/07:30am 12.8 10.8 6.4 65 3.0 W 6 7 3 4 1014.6 1014.6 0.0
24/07:00am 12.8 11.1 5.9 63 3.2 WNW 4 9 2 5 1014.2 1014.2 0.0
24/06:30am 13.5 11.6 7.5 67 2.9 NNW 7 11 4 6 1013.8 1013.8 0.0
24/06:00am 13.4 11.4 7.2 66 3.0 NW 7 9 4 5 1013.7 1013.7 0.0
24/05:30am 13.6 11.7 6.9 64 3.2 NW 6 7 3 4 1013.6 1013.6 0.0
24/05:00am 14.1 12.1 6.9 62 3.5 NW 7 9 4 5 1013.5 1013.5 0.0
24/04:30am 13.0 10.3 5.7 61 3.4 NW 9 11 5 6 1013.6 1013.6 0.0
24/04:00am 13.0 11.0 7.0 67 2.9 NW 7 9 4 5 1013.6 1013.6 0.0
24/03:30am 13.4 11.5 6.5 63 3.3 W 6 7 3 4 1013.7 1013.7 0.0
24/03:00am 12.3 9.8 4.5 59 3.5 WSW 7 9 4 5 1013.8 1013.8 0.0
24/02:30am 13.4 12.4 5.8 60 3.6 CALM 0 0 0 0 1014.0 1014.0 0.0
24/02:00am 13.8 12.9 5.9 59 3.7 CALM 0 0 0 0 1014.2 1014.2 0.0
24/01:30am 13.4 12.3 5.3 58 3.8 CALM 0 0 0 0 1014.3 1014.3 0.0
24/01:00am 13.2 11.6 4.4 55 4.0 E 2 6 1 3 1014.3 1014.3 0.0
24/12:30am 14.4 12.0 5.2 54 4.3 E 7 7 4 4 1014.3 1014.3 0.0
24/12:00am 17.9 15.5 7.0 49 5.4 E 9 11 5 6 1014.5 1014.5 0.0
 
Date/Time
CST
Temp
°C
App
Temp
°C
Dew
Point
°C
Rel
Hum
%
Delta-T
°C
Wind Press
QNH
hPa
Press
MSL
hPa
Rain since
9am
mm
Dir  Spd
km/h
Gust
km/h
Spd
kts
Gust
kts
23/11:30pm 16.7 14.0 7.4 54 4.6 E 11 13 6 7 1014.7 1014.7 0.0
23/11:00pm 15.8 13.8 7.1 56 4.3 E 7 9 4 5 1014.7 1014.7 0.0
23/10:30pm 16.0 14.2 5.6 50 5.0 SE 4 11 2 6 1014.7 1014.7 0.0
23/10:00pm 17.6 16.9 7.1 50 5.2 CALM 0 0 0 0 1014.6 1014.6 0.0
23/09:30pm 18.8 17.6 6.6 45 6.1 SSW 2 7 1 4 1014.6 1014.6 0.0
23/09:00pm 18.8 18.0 6.3 44 6.2 CALM 0 0 0 0 1014.4 1014.4 0.0
23/08:30pm 20.9 18.4 4.9 35 7.8 N 7 11 4 6 1014.3 1014.3 0.0
23/08:00pm 20.5 18.2 5.7 38 7.3 N 7 11 4 6 1014.0 1014.0 0.0
23/07:30pm 23.0 20.1 6.3 34 8.5 N 11 13 6 7 1013.8 1013.8 0.0
23/07:00pm 24.3 21.1 7.0 33 9.0 N 13 17 7 9 1013.8 1013.8 0.0
23/06:30pm 26.1 23.1 7.7 31 9.8 N 13 17 7 9 1013.7 1013.7 0.0
23/06:00pm 28.0 24.9 7.3 27 11.1 N 13 15 7 8 1013.5 1013.5 0.0
23/05:30pm 29.6 27.1 5.0 21 12.8 N 7 11 4 6 1013.2 1013.2 0.0
23/05:00pm 29.9 26.6 4.5 20 13.1 E 11 17 6 9 1013.0 1013.0 0.0
23/04:30pm 29.9 27.0 4.5 20 13.1 ESE 9 17 5 9 1013.0 1013.0 0.0
23/04:00pm 29.8 26.9 4.4 20 13.1 ENE 9 17 5 9 1013.2 1013.2 0.0
23/03:30pm 29.8 26.5 4.4 20 13.1 ESE 11 19 6 10 1013.4 1013.4 0.0
23/03:00pm 29.7 26.8 4.4 20 13.0 NE 9 15 5 8 1013.8 1013.8 0.0
23/02:30pm 30.0 26.7 4.6 20 13.1 NE 11 19 6 10 1014.3 1014.3 0.0
23/02:00pm 28.9 24.7 3.7 20 12.7 ENE 15 22 8 12 1015.0 1015.0 0.0
23/01:30pm 28.5 24.4 4.1 21 12.4 ESE 15 22 8 12 1015.5 1015.5 0.0
23/01:00pm 28.2 24.4 3.8 21 12.3 ESE 13 24 7 13 1016.2 1016.2 0.0
23/12:30pm 28.0 23.5 4.3 22 12.0 ESE 17 32 9 17 1016.8 1016.8 0.0
23/12:00pm 27.5 22.4 3.9 22 11.9 E 20 28 11 15 1017.4 1017.4 0.0
23/11:30am 26.4 21.2 2.3 21 11.7 E 19 26 10 14 1017.9 1017.9 0.0
23/11:00am 25.9 22.2 2.6 22 11.3 ESE 11 20 6 11 1018.5 1018.5 0.0
23/10:30am 24.9 20.3 1.7 22 11.0 SE 15 20 8 11 1018.8 1018.8 0.0
23/10:00am 23.3 20.5 2.2 25 10.0 S 6 11 3 6 1018.9 1018.9 0.0
23/09:30am 21.3 18.6 2.6 29 8.8 W 6 9 3 5 1019.0 1019.0 0.0
23/09:00am 19.3 16.7 3.1 34 7.6 WNW 6 7 3 4 1018.7 1018.7 0.0
23/08:30am 17.6 15.0 4.2 41 6.3 NW 7 7 4 4 1018.6 1018.6 0.0
23/08:00am 13.4 10.7 3.5 51 4.4 NW 7 9 4 5 1018.3 1018.3 0.0
23/07:30am 12.4 10.7 1.7 48 4.6 CALM 0 0 0 0 1018.1 1018.1 0.0
23/07:00am 12.5 8.7 1.5 47 4.7 E 11 13 6 7 1017.9 1017.9 0.0
23/06:30am 16.3 11.4 2.3 39 6.3 E 17 19 9 10 1017.6 1017.6 0.0
23/06:00am 13.3 8.8 2.2 47 4.8 E 15 15 8 8 1017.3 1017.3 0.0
23/05:30am 15.7 12.0 2.5 41 5.9 E 11 15 6 8 1016.9 1016.9 0.0
23/05:00am 13.5 10.2 2.4 47 4.9 E 9 11 5 6 1016.9 1016.9 0.0
23/04:30am 13.4 10.7 3.5 51 4.4 E 7 9 4 5 1016.9 1016.9 0.0
23/04:00am 11.1 8.3 3.4 59 3.4 E 7 9 4 5 1016.9 1016.9 0.0
23/03:30am 11.0 8.1 2.6 56 3.6 ENE 7 9 4 5 1017.0 1017.0 0.0
23/03:00am 11.0 9.3 1.8 53 3.9 CALM 0 0 0 0 1016.9 1016.9 0.0
23/02:30am 11.0 9.6 3.3 59 3.4 CALM 0 0 0 0 1017.0 1017.0 0.0
23/02:00am 11.4 9.8 2.2 53 3.9 CALM 0 0 0 0 1017.1 1017.1 0.0
23/01:30am 11.6 10.0 2.6 54 3.9 CALM 0 0 0 0 1017.2 1017.2 0.0
23/01:00am 12.6 11.1 3.0 52 4.2 CALM 0 0 0 0 1017.2 1017.2 0.0
23/12:30am 14.2 12.9 3.9 50 4.7 CALM 0 0 0 0 1017.2 1017.2 0.0
23/12:00am 14.5 13.2 3.9 49 4.8 CALM 0 0 0 0 1017.2 1017.2 0.0
 
Date/Time
CST
Temp
°C
App
Temp
°C
Dew
Point
°C
Rel
Hum
%
Delta-T
°C
Wind Press
QNH
hPa
Press
MSL
hPa
Rain since
9am
mm
Dir  Spd
km/h
Gust
km/h
Spd
kts
Gust
kts
22/11:30pm 14.9 13.4 3.1 45 5.3 CALM 0 0 0 0 1017.3 1017.3 0.0
22/11:00pm 15.6 12.9 2.4 41 5.9 ENE 6 7 3 4 1017.4 1017.4 0.0
22/10:30pm 18.1 15.2 2.8 36 7.0 ENE 7 9 4 5 1017.4 1017.4 0.0
22/10:00pm 16.7 13.5 3.1 40 6.2 E 9 11 5 6 1017.4 1017.4 0.0
22/09:30pm 19.4 16.3 3.6 35 7.4 ENE 9 11 5 6 1017.5 1017.5 0.0
22/09:00pm 18.5 15.4 3.6 37 7.0 E 9 11 5 6 1017.5 1017.5 0.0
22/08:30pm 20.3 17.3 3.9 34 7.8 E 9 11 5 6 1017.3 1017.3 0.0
22/08:00pm 20.7 17.7 3.9 33 8.1 E 9 11 5 6 1017.1 1017.1 0.0
22/07:30pm 21.6 18.0 2.8 29 8.9 ESE 11 13 6 7 1016.7 1016.7 0.0
22/07:00pm 23.4 19.4 2.8 26 9.9 SE 13 15 7 8 1016.4 1016.4 0.0
22/06:30pm 26.4 23.1 2.3 21 11.7 E 9 15 5 8 1016.0 1016.0 0.0
22/06:00pm 27.8 23.3 2.1 19 12.5 ESE 15 20 8 11 1015.8 1015.8 0.0
22/05:30pm 28.6 23.4 2.7 19 12.8 SE 19 28 10 15 1015.6 1015.6 0.0
22/05:00pm 28.9 23.7 2.2 18 13.1 SE 19 24 10 13 1015.4 1015.4 0.0
22/04:30pm 29.4 24.7 3.4 19 13.1 ESE 17 24 9 13 1015.5 1015.5 0.0
22/04:00pm 29.6 24.5 2.8 18 13.4 E 19 28 10 15 1015.7 1015.7 0.0
22/03:30pm 29.4 24.6 2.6 18 13.3 E 17 26 9 14 1015.9 1015.9 0.0
22/03:00pm 28.7 23.4 2.8 19 12.9 E 20 32 11 17 1016.3 1016.3 0.0
22/02:30pm 28.6 22.9 2.7 19 12.8 E 22 33 12 18 1016.8 1016.8 0.0
22/02:00pm 28.4 22.8 3.3 20 12.6 ESE 22 32 12 17 1017.2 1017.2 0.0
22/01:30pm 28.1 22.4 3.0 20 12.4 ESE 22 35 12 19 1017.7 1017.7 0.0
22/01:00pm 27.5 21.9 3.2 21 12.1 E 22 33 12 18 1018.3 1018.3 0.0
22/12:30pm 27.2 20.9 3.7 22 11.7 ESE 26 35 14 19 1018.7 1018.7 0.0
22/12:00pm 26.7 19.9 3.2 22 11.6 ESE 28 35 15 19 1019.4 1019.4 0.0
22/11:30am 26.1 19.4 3.4 23 11.2 ESE 28 35 15 19 1019.8 1019.8 0.0
22/11:00am 25.8 19.1 3.7 24 10.9 ESE 28 35 15 19 1020.1 1020.1 0.0
22/10:30am 24.7 18.4 3.9 26 10.2 ESE 26 35 14 19 1020.3 1020.3 0.0
22/10:00am 23.5 17.0 2.9 26 9.9 ESE 26 35 14 19 1020.4 1020.4 0.0
22/09:30am 22.5 17.2 3.1 28 9.3 ESE 20 26 11 14 1020.3 1020.3 0.0
22/09:00am 19.3 16.6 3.5 35 7.4 SE 7 9 4 5 1020.2 1020.2 0.0
22/08:30am 15.5 12.9 4.3 47 5.2 SE 7 7 4 4 1019.7 1019.7 0.0
22/08:00am 12.6 9.9 3.8 55 3.9 E 7 7 4 4 1019.4 1019.4 0.0
22/07:30am 11.0 8.3 2.8 57 3.5 E 6 7 3 4 1019.0 1019.0 0.0
22/07:00am 9.8 7.3 3.5 65 2.7 E 6 7 3 4 1018.8 1018.8 0.0
22/06:30am 9.9 7.3 3.0 62 3.0 E 6 7 3 4 1018.7 1018.7 0.0
22/06:00am 12.0 9.4 3.0 54 3.9 E 6 6 3 3 1018.6 1018.6 0.0
22/05:30am 11.9 9.2 2.9 54 3.9 SE 6 7 3 4 1018.5 1018.5 0.0
22/05:00am 11.5 8.6 2.8 55 3.8 SE 7 9 4 5 1018.5 1018.5 0.0
22/04:30am 11.0 7.7 2.6 56 3.6 SE 9 9 5 5 1018.4 1018.4 0.0
22/04:00am 13.0 9.7 2.3 48 4.7 ESE 9 9 5 5 1018.3 1018.3 0.0
22/03:30am 12.0 8.7 2.2 51 4.2 E 9 11 5 6 1018.5 1018.5 0.0
22/03:00am 11.5 8.5 2.0 52 4.1 ENE 7 9 4 5 1018.6 1018.6 0.0
22/02:30am 12.3 10.8 3.0 53 4.1 CALM 0 0 0 0 1018.6 1018.6 0.0
22/02:00am 13.6 11.9 1.6 44 5.2 CALM 0 0 0 0 1018.6 1018.6 0.0
22/01:30am 14.5 11.5 2.1 43 5.4 E 7 9 4 5 1018.7 1018.7 0.0
22/01:00am 14.0 11.3 2.9 47 4.9 ENE 6 7 3 4 1018.6 1018.6 0.0
22/12:30am 14.1 12.7 3.3 48 4.8 CALM 0 0 0 0 1018.7 1018.7 0.0
22/12:00am 15.3 13.8 3.1 44 5.5 CALM 0 0 0 0 1018.7 1018.7 0.0
 
Date/Time
CST
Temp
°C
App
Temp
°C
Dew
Point
°C
Rel
Hum
%
Delta-T
°C
Wind Press
QNH
hPa
Press
MSL
hPa
Rain since
9am
mm
Dir  Spd
km/h
Gust
km/h
Spd
kts
Gust
kts
21/11:30pm 16.4 14.7 1.7 37 6.5 CALM 0 0 0 0 1018.6 1018.6 0.0
21/11:00pm 17.4 14.1 2.2 36 6.9 E 9 9 5 5 1018.6 1018.6 0.0
21/10:30pm 19.1 15.9 2.9 34 7.5 E 9 11 5 6 1018.4 1018.4 0.0
21/10:00pm 18.9 15.3 2.7 34 7.5 E 11 11 6 6 1018.5 1018.5 0.0
21/09:30pm 18.9 14.8 2.3 33 7.6 E 13 13 7 7 1018.3 1018.3 0.0
21/09:00pm 21.0 16.9 2.3 29 8.7 E 13 13 7 7 1017.9 1017.9 0.0
21/08:30pm 20.6 16.5 2.4 30 8.5 E 13 13 7 7 1017.5 1017.5 0.0
21/08:00pm 21.6 18.1 3.3 30 8.7 E 11 13 6 7 1017.0 1017.0 0.0
21/07:30pm 22.6 19.0 3.2 28 9.3 ESE 11 15 6 8 1016.8 1016.8 0.0
21/07:00pm 24.1 20.1 2.9 25 10.2 SSE 13 17 7 9 1016.5 1016.5 0.0
21/06:30pm 26.7 22.0 3.2 22 11.6 SSE 17 20 9 11 1016.2 1016.2 0.0
21/06:00pm 28.0 23.5 2.2 19 12.6 ESE 15 20 8 11 1015.9 1015.9 0.0
21/05:30pm 28.9 23.8 0.6 16 13.5 ESE 17 28 9 15 1015.6 1015.6 0.0
21/05:00pm 29.3 24.2 0.9 16 13.7 SE 17 26 9 14 1015.6 1015.6 0.0
21/04:30pm 29.1 24.0 0.7 16 13.6 ESE 17 26 9 14 1015.5 1015.5 0.0
21/04:00pm 29.6 24.6 1.1 16 13.8 SE 17 24 9 13 1015.6 1015.6 0.0
21/03:30pm 29.2 23.9 1.7 17 13.4 ESE 19 26 10 14 1015.8 1015.8 0.0
21/03:00pm 29.6 24.6 1.1 16 13.8 ESE 17 28 9 15 1016.1 1016.1 0.0
21/02:30pm 29.5 24.0 1.9 17 13.5 SE 20 32 11 17 1016.6 1016.6 0.0
21/02:00pm 28.8 22.8 1.3 17 13.3 ESE 22 33 12 18 1017.2 1017.2 0.0
21/01:30pm 28.8 22.8 1.3 17 13.3 E 22 32 12 17 1017.8 1017.8 0.0
21/01:00pm 27.9 21.6 1.4 18 12.8 SE 24 32 13 17 1018.3 1018.3 0.0
21/12:30pm 27.7 21.5 2.0 19 12.5 ESE 24 35 13 19 1018.8 1018.8 0.0
21/12:00pm 27.0 20.3 1.4 19 12.3 ESE 26 37 14 20 1019.5 1019.5 0.0
21/11:30am 26.6 19.6 1.8 20 11.9 E 28 39 15 21 1019.7 1019.7 0.0
21/11:00am 25.5 17.7 1.6 21 11.4 E 32 39 17 21 1019.9 1019.9 0.0
21/10:30am 24.9 16.8 1.1 21 11.1 E 33 44 18 24 1020.0 1020.0 0.0
21/10:00am 24.7 18.4 1.6 22 10.9 ESE 24 32 13 17 1020.2 1020.2 0.0
21/09:30am 22.5 19.0 3.6 29 9.1 ESE 11 15 6 8 1020.3 1020.3 0.0

Other formats

Comma delimited format used in spreadsheet applications
http://www.bom.gov.au/fwo/IDD60801/IDD60801.95214.axf

JavaScript Object Notation format (JSON) in row-major order
http://www.bom.gov.au/fwo/IDD60801/IDD60801.95214.json

Data quality

Most of these data are generated automatically and are frequently updated. Quality checks on data are not normally performed. It is possible for incorrect values to appear. Refer to information at About Latest Weather Observations and please check the disclaimer before using these data.